sensor_id;sensor_type;location;lat;lon;timestamp;P1;durP1;ratioP1;P2;durP2;ratioP2
3311;SDS011;1668;49.648;8.570;2022-08-21T00:00:19;8.80;;;5.00;;
3311;SDS011;1668;49.648;8.570;2022-08-21T00:02:49;5.70;;;4.47;;
3311;SDS011;1668;49.648;8.570;2022-08-21T00:05:18;6.83;;;4.97;;
3311;SDS011;1668;49.648;8.570;2022-08-21T00:07:45;5.60;;;4.23;;
3311;SDS011;1668;49.648;8.570;2022-08-21T00:10:11;6.40;;;4.63;;
3311;SDS011;1668;49.648;8.570;2022-08-21T00:12:39;6.70;;;4.50;;
3311;SDS011;1668;49.648;8.570;2022-08-21T00:15:10;7.90;;;4.90;;
3311;SDS011;1668;49.648;8.570;2022-08-21T00:17:38;7.30;;;4.70;;
3311;SDS011;1668;49.648;8.570;2022-08-21T00:20:06;6.90;;;4.70;;
3311;SDS011;1668;49.648;8.570;2022-08-21T00:22:36;6.60;;;4.50;;
3311;SDS011;1668;49.648;8.570;2022-08-21T00:25:04;8.00;;;4.80;;
3311;SDS011;1668;49.648;8.570;2022-08-21T00:27:33;7.20;;;5.27;;
3311;SDS011;1668;49.648;8.570;2022-08-21T00:30:00;5.67;;;4.53;;
3311;SDS011;1668;49.648;8.570;2022-08-21T00:32:28;6.57;;;5.40;;
3311;SDS011;1668;49.648;8.570;2022-08-21T00:34:56;7.13;;;5.07;;
3311;SDS011;1668;49.648;8.570;2022-08-21T00:37:23;6.37;;;4.50;;
3311;SDS011;1668;49.648;8.570;2022-08-21T00:39:50;6.17;;;4.87;;
3311;SDS011;1668;49.648;8.570;2022-08-21T00:42:18;7.93;;;4.83;;
3311;SDS011;1668;49.648;8.570;2022-08-21T00:44:46;8.90;;;5.17;;
3311;SDS011;1668;49.648;8.570;2022-08-21T00:47:15;6.57;;;5.17;;
3311;SDS011;1668;49.648;8.570;2022-08-21T00:49:43;6.60;;;5.07;;
3311;SDS011;1668;49.648;8.570;2022-08-21T00:52:12;7.30;;;4.83;;
3311;SDS011;1668;49.648;8.570;2022-08-21T00:54:42;7.13;;;4.63;;
3311;SDS011;1668;49.648;8.570;2022-08-21T00:57:10;8.17;;;5.27;;
3311;SDS011;1668;49.648;8.570;2022-08-21T00:59:42;7.37;;;5.67;;
3311;SDS011;1668;49.648;8.570;2022-08-21T01:02:12;6.83;;;4.73;;
3311;SDS011;1668;49.648;8.570;2022-08-21T01:04:39;8.10;;;5.03;;
3311;SDS011;1668;49.648;8.570;2022-08-21T01:07:08;6.57;;;5.27;;
3311;SDS011;1668;49.648;8.570;2022-08-21T01:09:35;9.53;;;5.30;;
3311;SDS011;1668;49.648;8.570;2022-08-21T01:12:03;8.83;;;5.30;;
3311;SDS011;1668;49.648;8.570;2022-08-21T01:14:30;7.37;;;5.47;;
3311;SDS011;1668;49.648;8.570;2022-08-21T01:16:58;7.53;;;5.40;;
3311;SDS011;1668;49.648;8.570;2022-08-21T01:19:28;7.80;;;5.37;;
3311;SDS011;1668;49.648;8.570;2022-08-21T01:21:57;7.43;;;5.37;;
3311;SDS011;1668;49.648;8.570;2022-08-21T01:24:25;6.30;;;5.00;;
3311;SDS011;1668;49.648;8.570;2022-08-21T01:26:52;7.63;;;5.33;;
3311;SDS011;1668;49.648;8.570;2022-08-21T01:29:23;9.23;;;5.83;;
3311;SDS011;1668;49.648;8.570;2022-08-21T01:31:56;7.03;;;5.20;;
3311;SDS011;1668;49.648;8.570;2022-08-21T01:34:23;6.97;;;5.57;;
3311;SDS011;1668;49.648;8.570;2022-08-21T01:36:50;6.53;;;5.03;;
3311;SDS011;1668;49.648;8.570;2022-08-21T01:39:19;7.97;;;5.13;;
3311;SDS011;1668;49.648;8.570;2022-08-21T01:41:46;7.33;;;5.17;;
3311;SDS011;1668;49.648;8.570;2022-08-21T01:44:13;6.13;;;4.93;;
3311;SDS011;1668;49.648;8.570;2022-08-21T01:46:40;9.63;;;5.33;;
3311;SDS011;1668;49.648;8.570;2022-08-21T01:49:06;8.93;;;5.40;;
3311;SDS011;1668;49.648;8.570;2022-08-21T01:51:33;8.60;;;5.37;;
3311;SDS011;1668;49.648;8.570;2022-08-21T01:54:00;8.40;;;5.00;;
3311;SDS011;1668;49.648;8.570;2022-08-21T01:56:34;10.27;;;4.80;;
3311;SDS011;1668;49.648;8.570;2022-08-21T01:59:03;6.50;;;5.33;;
3311;SDS011;1668;49.648;8.570;2022-08-21T02:01:30;11.10;;;5.80;;
3311;SDS011;1668;49.648;8.570;2022-08-21T02:03:57;8.77;;;6.10;;
3311;SDS011;1668;49.648;8.570;2022-08-21T02:06:24;7.73;;;5.90;;
3311;SDS011;1668;49.648;8.570;2022-08-21T02:08:52;8.20;;;7.10;;
3311;SDS011;1668;49.648;8.570;2022-08-21T02:11:19;7.90;;;5.93;;
3311;SDS011;1668;49.648;8.570;2022-08-21T02:13:47;10.80;;;7.03;;
3311;SDS011;1668;49.648;8.570;2022-08-21T02:16:14;9.53;;;6.80;;
3311;SDS011;1668;49.648;8.570;2022-08-21T02:18:42;9.57;;;6.83;;
3311;SDS011;1668;49.648;8.570;2022-08-21T02:21:09;9.17;;;6.40;;
3311;SDS011;1668;49.648;8.570;2022-08-21T02:23:36;9.97;;;6.70;;
3311;SDS011;1668;49.648;8.570;2022-08-21T02:26:04;8.40;;;6.43;;
3311;SDS011;1668;49.648;8.570;2022-08-21T02:28:33;9.23;;;6.63;;
3311;SDS011;1668;49.648;8.570;2022-08-21T02:31:02;8.33;;;6.20;;
3311;SDS011;1668;49.648;8.570;2022-08-21T02:33:29;10.13;;;6.60;;
3311;SDS011;1668;49.648;8.570;2022-08-21T02:35:57;11.67;;;6.87;;
3311;SDS011;1668;49.648;8.570;2022-08-21T02:38:26;8.27;;;6.50;;
3311;SDS011;1668;49.648;8.570;2022-08-21T02:40:54;7.60;;;6.30;;
3311;SDS011;1668;49.648;8.570;2022-08-21T02:43:23;8.07;;;6.50;;
3311;SDS011;1668;49.648;8.570;2022-08-21T02:45:52;9.50;;;6.47;;
3311;SDS011;1668;49.648;8.570;2022-08-21T02:48:22;7.33;;;6.27;;
3311;SDS011;1668;49.648;8.570;2022-08-21T02:50:52;11.10;;;6.60;;
3311;SDS011;1668;49.648;8.570;2022-08-21T02:53:20;7.33;;;6.10;;
3311;SDS011;1668;49.648;8.570;2022-08-21T02:55:48;9.70;;;6.30;;
3311;SDS011;1668;49.648;8.570;2022-08-21T02:58:22;11.13;;;7.00;;
3311;SDS011;1668;49.648;8.570;2022-08-21T03:00:51;9.70;;;7.30;;
3311;SDS011;1668;49.648;8.570;2022-08-21T03:03:18;8.93;;;7.10;;
3311;SDS011;1668;49.648;8.570;2022-08-21T03:05:47;13.00;;;7.57;;
3311;SDS011;1668;49.648;8.570;2022-08-21T03:08:15;9.73;;;6.70;;
3311;SDS011;1668;49.648;8.570;2022-08-21T03:10:44;9.30;;;6.90;;
3311;SDS011;1668;49.648;8.570;2022-08-21T03:13:13;8.57;;;6.20;;
3311;SDS011;1668;49.648;8.570;2022-08-21T03:15:40;9.80;;;7.37;;
3311;SDS011;1668;49.648;8.570;2022-08-21T03:18:08;8.60;;;7.03;;
3311;SDS011;1668;49.648;8.570;2022-08-21T03:20:36;9.33;;;6.43;;
3311;SDS011;1668;49.648;8.570;2022-08-21T03:23:06;12.30;;;6.83;;
3311;SDS011;1668;49.648;8.570;2022-08-21T03:25:33;8.10;;;6.10;;
3311;SDS011;1668;49.648;8.570;2022-08-21T03:28:01;10.83;;;6.80;;
3311;SDS011;1668;49.648;8.570;2022-08-21T03:30:29;9.10;;;6.20;;
3311;SDS011;1668;49.648;8.570;2022-08-21T03:32:57;9.07;;;6.47;;
3311;SDS011;1668;49.648;8.570;2022-08-21T03:35:24;9.63;;;6.87;;
3311;SDS011;1668;49.648;8.570;2022-08-21T03:37:52;8.40;;;6.40;;
3311;SDS011;1668;49.648;8.570;2022-08-21T03:40:23;11.47;;;6.30;;
3311;SDS011;1668;49.648;8.570;2022-08-21T03:42:51;8.20;;;6.30;;
3311;SDS011;1668;49.648;8.570;2022-08-21T03:45:18;8.17;;;6.50;;
3311;SDS011;1668;49.648;8.570;2022-08-21T03:47:52;9.17;;;6.30;;
3311;SDS011;1668;49.648;8.570;2022-08-21T03:50:20;8.37;;;5.50;;
3311;SDS011;1668;49.648;8.570;2022-08-21T03:52:47;8.33;;;6.20;;
3311;SDS011;1668;49.648;8.570;2022-08-21T03:55:14;7.87;;;5.97;;
3311;SDS011;1668;49.648;8.570;2022-08-21T03:57:43;9.43;;;5.80;;
3311;SDS011;1668;49.648;8.570;2022-08-21T04:00:10;9.93;;;6.63;;
3311;SDS011;1668;49.648;8.570;2022-08-21T04:02:39;9.50;;;6.67;;
3311;SDS011;1668;49.648;8.570;2022-08-21T04:05:07;11.97;;;7.37;;
3311;SDS011;1668;49.648;8.570;2022-08-21T04:07:34;13.30;;;7.13;;
3311;SDS011;1668;49.648;8.570;2022-08-21T04:10:01;7.73;;;6.87;;
3311;SDS011;1668;49.648;8.570;2022-08-21T04:12:29;7.73;;;6.40;;
3311;SDS011;1668;49.648;8.570;2022-08-21T04:14:57;11.33;;;7.33;;
3311;SDS011;1668;49.648;8.570;2022-08-21T04:17:24;9.10;;;6.90;;
3311;SDS011;1668;49.648;8.570;2022-08-21T04:19:51;9.43;;;7.07;;
3311;SDS011;1668;49.648;8.570;2022-08-21T04:22:19;7.50;;;6.20;;
3311;SDS011;1668;49.648;8.570;2022-08-21T04:24:46;10.40;;;7.27;;
3311;SDS011;1668;49.648;8.570;2022-08-21T04:27:13;10.30;;;8.10;;
3311;SDS011;1668;49.648;8.570;2022-08-21T04:29:39;8.27;;;6.67;;
3311;SDS011;1668;49.648;8.570;2022-08-21T04:32:08;10.30;;;7.07;;
3311;SDS011;1668;49.648;8.570;2022-08-21T04:34:34;8.40;;;6.57;;
3311;SDS011;1668;49.648;8.570;2022-08-21T04:37:01;9.07;;;6.97;;
3311;SDS011;1668;49.648;8.570;2022-08-21T04:39:28;10.10;;;7.20;;
3311;SDS011;1668;49.648;8.570;2022-08-21T04:41:55;10.50;;;6.63;;
3311;SDS011;1668;49.648;8.570;2022-08-21T04:44:22;12.47;;;6.90;;
3311;SDS011;1668;49.648;8.570;2022-08-21T04:46:49;8.43;;;7.00;;
3311;SDS011;1668;49.648;8.570;2022-08-21T04:49:18;9.53;;;6.67;;
3311;SDS011;1668;49.648;8.570;2022-08-21T04:51:44;11.60;;;7.30;;
3311;SDS011;1668;49.648;8.570;2022-08-21T04:54:13;11.93;;;7.13;;
3311;SDS011;1668;49.648;8.570;2022-08-21T04:56:45;10.50;;;7.00;;
3311;SDS011;1668;49.648;8.570;2022-08-21T04:59:17;8.77;;;6.50;;
3311;SDS011;1668;49.648;8.570;2022-08-21T05:01:47;9.17;;;7.50;;
3311;SDS011;1668;49.648;8.570;2022-08-21T05:04:16;8.63;;;7.13;;
3311;SDS011;1668;49.648;8.570;2022-08-21T05:06:48;9.83;;;7.10;;
3311;SDS011;1668;49.648;8.570;2022-08-21T05:09:17;11.33;;;6.63;;
3311;SDS011;1668;49.648;8.570;2022-08-21T05:11:45;9.33;;;7.40;;
3311;SDS011;1668;49.648;8.570;2022-08-21T05:14:14;10.50;;;6.90;;
3311;SDS011;1668;49.648;8.570;2022-08-21T05:16:41;10.60;;;7.67;;
3311;SDS011;1668;49.648;8.570;2022-08-21T05:19:09;8.70;;;7.30;;
3311;SDS011;1668;49.648;8.570;2022-08-21T05:21:39;10.40;;;7.90;;
3311;SDS011;1668;49.648;8.570;2022-08-21T05:24:08;9.20;;;7.33;;
3311;SDS011;1668;49.648;8.570;2022-08-21T05:26:35;8.97;;;6.47;;
3311;SDS011;1668;49.648;8.570;2022-08-21T05:29:02;10.83;;;6.87;;
3311;SDS011;1668;49.648;8.570;2022-08-21T05:31:29;10.97;;;7.20;;
3311;SDS011;1668;49.648;8.570;2022-08-21T05:33:56;11.77;;;7.00;;
3311;SDS011;1668;49.648;8.570;2022-08-21T05:36:23;8.37;;;6.30;;
3311;SDS011;1668;49.648;8.570;2022-08-21T05:38:51;8.87;;;6.47;;
3311;SDS011;1668;49.648;8.570;2022-08-21T05:41:18;8.77;;;5.63;;
3311;SDS011;1668;49.648;8.570;2022-08-21T05:43:45;9.37;;;6.13;;
3311;SDS011;1668;49.648;8.570;2022-08-21T05:46:12;8.10;;;5.90;;
3311;SDS011;1668;49.648;8.570;2022-08-21T05:48:39;10.00;;;6.40;;
3311;SDS011;1668;49.648;8.570;2022-08-21T05:51:07;10.23;;;6.23;;
3311;SDS011;1668;49.648;8.570;2022-08-21T05:53:36;9.23;;;6.70;;
3311;SDS011;1668;49.648;8.570;2022-08-21T05:56:05;10.60;;;6.03;;
3311;SDS011;1668;49.648;8.570;2022-08-21T05:58:32;9.33;;;6.53;;
3311;SDS011;1668;49.648;8.570;2022-08-21T06:01:00;9.63;;;6.77;;
3311;SDS011;1668;49.648;8.570;2022-08-21T06:03:28;9.40;;;6.33;;
3311;SDS011;1668;49.648;8.570;2022-08-21T06:05:56;8.37;;;5.73;;
3311;SDS011;1668;49.648;8.570;2022-08-21T06:08:24;8.50;;;6.30;;
3311;SDS011;1668;49.648;8.570;2022-08-21T06:10:51;9.43;;;7.50;;
3311;SDS011;1668;49.648;8.570;2022-08-21T06:13:21;9.13;;;6.20;;
3311;SDS011;1668;49.648;8.570;2022-08-21T06:15:49;11.43;;;7.07;;
3311;SDS011;1668;49.648;8.570;2022-08-21T06:18:17;8.60;;;6.37;;
3311;SDS011;1668;49.648;8.570;2022-08-21T06:20:43;9.10;;;6.80;;
3311;SDS011;1668;49.648;8.570;2022-08-21T06:23:13;10.43;;;6.50;;
3311;SDS011;1668;49.648;8.570;2022-08-21T06:25:40;8.87;;;6.13;;
3311;SDS011;1668;49.648;8.570;2022-08-21T06:28:08;7.20;;;5.80;;
3311;SDS011;1668;49.648;8.570;2022-08-21T06:30:37;7.20;;;5.73;;
3311;SDS011;1668;49.648;8.570;2022-08-21T06:33:05;11.60;;;6.20;;
3311;SDS011;1668;49.648;8.570;2022-08-21T06:35:33;8.13;;;6.50;;
3311;SDS011;1668;49.648;8.570;2022-08-21T06:38:00;9.03;;;5.97;;
3311;SDS011;1668;49.648;8.570;2022-08-21T06:40:27;9.20;;;5.93;;
3311;SDS011;1668;49.648;8.570;2022-08-21T06:42:55;7.80;;;5.77;;
3311;SDS011;1668;49.648;8.570;2022-08-21T06:45:23;9.03;;;5.80;;
3311;SDS011;1668;49.648;8.570;2022-08-21T06:47:52;6.90;;;5.50;;
3311;SDS011;1668;49.648;8.570;2022-08-21T06:50:19;8.87;;;5.83;;
3311;SDS011;1668;49.648;8.570;2022-08-21T06:52:46;9.47;;;5.80;;
3311;SDS011;1668;49.648;8.570;2022-08-21T06:55:13;8.20;;;5.60;;
3311;SDS011;1668;49.648;8.570;2022-08-21T06:57:40;12.13;;;6.23;;
3311;SDS011;1668;49.648;8.570;2022-08-21T07:00:08;16.83;;;6.10;;
3311;SDS011;1668;49.648;8.570;2022-08-21T07:02:35;11.70;;;5.83;;
3311;SDS011;1668;49.648;8.570;2022-08-21T07:05:07;8.60;;;6.20;;
3311;SDS011;1668;49.648;8.570;2022-08-21T07:07:34;8.50;;;5.67;;
3311;SDS011;1668;49.648;8.570;2022-08-21T07:10:00;9.70;;;5.90;;
3311;SDS011;1668;49.648;8.570;2022-08-21T07:12:28;9.10;;;6.03;;
3311;SDS011;1668;49.648;8.570;2022-08-21T07:14:55;9.90;;;6.53;;
3311;SDS011;1668;49.648;8.570;2022-08-21T07:17:22;10.50;;;5.70;;
3311;SDS011;1668;49.648;8.570;2022-08-21T07:19:49;10.37;;;6.50;;
3311;SDS011;1668;49.648;8.570;2022-08-21T07:22:18;8.87;;;5.83;;
3311;SDS011;1668;49.648;8.570;2022-08-21T07:24:46;8.47;;;5.50;;
3311;SDS011;1668;49.648;8.570;2022-08-21T07:27:13;12.43;;;5.60;;
3311;SDS011;1668;49.648;8.570;2022-08-21T07:29:40;6.43;;;5.50;;
3311;SDS011;1668;49.648;8.570;2022-08-21T07:32:07;7.73;;;5.30;;
3311;SDS011;1668;49.648;8.570;2022-08-21T07:34:34;10.53;;;5.53;;
3311;SDS011;1668;49.648;8.570;2022-08-21T07:37:00;9.23;;;5.20;;
3311;SDS011;1668;49.648;8.570;2022-08-21T07:39:29;15.00;;;5.60;;
3311;SDS011;1668;49.648;8.570;2022-08-21T07:41:56;7.70;;;5.80;;
3311;SDS011;1668;49.648;8.570;2022-08-21T07:44:22;10.20;;;5.53;;
3311;SDS011;1668;49.648;8.570;2022-08-21T07:46:49;8.13;;;4.70;;
3311;SDS011;1668;49.648;8.570;2022-08-21T07:49:16;7.50;;;6.00;;
3311;SDS011;1668;49.648;8.570;2022-08-21T07:51:43;10.33;;;5.63;;
3311;SDS011;1668;49.648;8.570;2022-08-21T07:54:10;8.03;;;4.90;;
3311;SDS011;1668;49.648;8.570;2022-08-21T07:56:38;7.07;;;5.70;;
3311;SDS011;1668;49.648;8.570;2022-08-21T07:59:05;9.70;;;5.60;;
3311;SDS011;1668;49.648;8.570;2022-08-21T08:01:32;10.53;;;6.27;;
3311;SDS011;1668;49.648;8.570;2022-08-21T08:03:59;11.33;;;5.80;;
3311;SDS011;1668;49.648;8.570;2022-08-21T08:06:26;9.40;;;5.47;;
3311;SDS011;1668;49.648;8.570;2022-08-21T08:08:53;8.00;;;5.43;;
3311;SDS011;1668;49.648;8.570;2022-08-21T08:11:20;9.77;;;6.23;;
3311;SDS011;1668;49.648;8.570;2022-08-21T08:13:49;8.57;;;5.90;;
3311;SDS011;1668;49.648;8.570;2022-08-21T08:16:17;11.00;;;7.23;;
3311;SDS011;1668;49.648;8.570;2022-08-21T08:18:45;7.37;;;6.07;;
3311;SDS011;1668;49.648;8.570;2022-08-21T08:21:12;8.40;;;6.00;;
3311;SDS011;1668;49.648;8.570;2022-08-21T08:23:39;10.17;;;6.37;;
3311;SDS011;1668;49.648;8.570;2022-08-21T08:26:06;9.07;;;5.43;;
3311;SDS011;1668;49.648;8.570;2022-08-21T08:28:33;7.07;;;5.47;;
3311;SDS011;1668;49.648;8.570;2022-08-21T08:31:01;7.70;;;4.80;;
3311;SDS011;1668;49.648;8.570;2022-08-21T08:33:28;8.20;;;5.33;;
3311;SDS011;1668;49.648;8.570;2022-08-21T08:35:56;12.70;;;5.73;;
3311;SDS011;1668;49.648;8.570;2022-08-21T08:38:23;7.83;;;5.53;;
3311;SDS011;1668;49.648;8.570;2022-08-21T08:40:52;7.17;;;4.80;;
3311;SDS011;1668;49.648;8.570;2022-08-21T08:43:25;6.87;;;4.93;;
3311;SDS011;1668;49.648;8.570;2022-08-21T08:45:53;10.53;;;4.67;;
3311;SDS011;1668;49.648;8.570;2022-08-21T08:48:31;8.37;;;5.70;;
3311;SDS011;1668;49.648;8.570;2022-08-21T08:51:14;14.70;;;5.43;;
3311;SDS011;1668;49.648;8.570;2022-08-21T08:53:49;11.53;;;5.00;;
3311;SDS011;1668;49.648;8.570;2022-08-21T08:56:21;9.70;;;5.00;;
3311;SDS011;1668;49.648;8.570;2022-08-21T08:58:52;6.07;;;4.30;;
3311;SDS011;1668;49.648;8.570;2022-08-21T09:01:22;7.63;;;4.20;;
3311;SDS011;1668;49.648;8.570;2022-08-21T09:03:50;7.43;;;4.77;;
3311;SDS011;1668;49.648;8.570;2022-08-21T09:06:28;8.03;;;5.40;;
3311;SDS011;1668;49.648;8.570;2022-08-21T09:09:07;7.03;;;4.90;;
3311;SDS011;1668;49.648;8.570;2022-08-21T09:11:48;7.67;;;5.07;;
3311;SDS011;1668;49.648;8.570;2022-08-21T09:14:23;6.73;;;4.67;;
3311;SDS011;1668;49.648;8.570;2022-08-21T09:17:01;8.00;;;5.33;;
3311;SDS011;1668;49.648;8.570;2022-08-21T09:19:43;10.00;;;5.40;;
3311;SDS011;1668;49.648;8.570;2022-08-21T09:22:23;7.97;;;5.30;;
3311;SDS011;1668;49.648;8.570;2022-08-21T09:25:03;7.30;;;4.80;;
3311;SDS011;1668;49.648;8.570;2022-08-21T09:27:35;8.10;;;4.87;;
3311;SDS011;1668;49.648;8.570;2022-08-21T09:30:04;7.00;;;4.97;;
3311;SDS011;1668;49.648;8.570;2022-08-21T09:32:34;8.77;;;4.97;;
3311;SDS011;1668;49.648;8.570;2022-08-21T09:35:06;11.67;;;5.70;;
3311;SDS011;1668;49.648;8.570;2022-08-21T09:37:44;9.60;;;4.67;;
3311;SDS011;1668;49.648;8.570;2022-08-21T09:40:15;9.40;;;5.00;;
3311;SDS011;1668;49.648;8.570;2022-08-21T09:42:53;7.90;;;4.37;;
3311;SDS011;1668;49.648;8.570;2022-08-21T09:45:22;6.57;;;4.03;;
3311;SDS011;1668;49.648;8.570;2022-08-21T09:47:49;7.37;;;4.33;;
3311;SDS011;1668;49.648;8.570;2022-08-21T09:50:19;8.47;;;4.80;;
3311;SDS011;1668;49.648;8.570;2022-08-21T09:52:49;7.87;;;3.83;;
3311;SDS011;1668;49.648;8.570;2022-08-21T09:55:20;7.70;;;3.90;;
3311;SDS011;1668;49.648;8.570;2022-08-21T09:58:10;5.50;;;3.63;;
3311;SDS011;1668;49.648;8.570;2022-08-21T10:00:37;5.87;;;3.80;;
3311;SDS011;1668;49.648;8.570;2022-08-21T10:03:08;8.57;;;4.20;;
3311;SDS011;1668;49.648;8.570;2022-08-21T10:05:39;6.57;;;3.80;;
3311;SDS011;1668;49.648;8.570;2022-08-21T10:08:17;5.77;;;3.63;;
3311;SDS011;1668;49.648;8.570;2022-08-21T10:10:44;6.40;;;4.17;;
3311;SDS011;1668;49.648;8.570;2022-08-21T10:13:13;8.13;;;3.83;;
3311;SDS011;1668;49.648;8.570;2022-08-21T10:15:47;7.23;;;3.90;;
3311;SDS011;1668;49.648;8.570;2022-08-21T10:18:22;7.83;;;3.50;;
3311;SDS011;1668;49.648;8.570;2022-08-21T10:20:58;9.30;;;3.50;;
3311;SDS011;1668;49.648;8.570;2022-08-21T10:23:37;6.10;;;3.03;;
3311;SDS011;1668;49.648;8.570;2022-08-21T10:26:20;4.47;;;3.00;;
3311;SDS011;1668;49.648;8.570;2022-08-21T10:29:00;7.90;;;3.77;;
3311;SDS011;1668;49.648;8.570;2022-08-21T10:31:46;7.23;;;3.23;;
3311;SDS011;1668;49.648;8.570;2022-08-21T10:34:24;5.53;;;3.40;;
3311;SDS011;1668;49.648;8.570;2022-08-21T10:37:05;8.20;;;3.70;;
3311;SDS011;1668;49.648;8.570;2022-08-21T10:39:41;7.97;;;3.73;;
3311;SDS011;1668;49.648;8.570;2022-08-21T10:42:21;7.40;;;3.07;;
3311;SDS011;1668;49.648;8.570;2022-08-21T10:44:59;6.73;;;3.20;;
3311;SDS011;1668;49.648;8.570;2022-08-21T10:47:39;5.90;;;3.60;;
3311;SDS011;1668;49.648;8.570;2022-08-21T10:50:12;7.97;;;3.17;;
3311;SDS011;1668;49.648;8.570;2022-08-21T10:53:04;5.90;;;3.53;;
3311;SDS011;1668;49.648;8.570;2022-08-21T10:55:39;7.10;;;3.30;;
3311;SDS011;1668;49.648;8.570;2022-08-21T10:58:10;5.77;;;3.13;;
3311;SDS011;1668;49.648;8.570;2022-08-21T11:00:40;5.00;;;3.27;;
3311;SDS011;1668;49.648;8.570;2022-08-21T11:03:12;7.03;;;3.30;;
3311;SDS011;1668;49.648;8.570;2022-08-21T11:05:43;7.90;;;3.50;;
3311;SDS011;1668;49.648;8.570;2022-08-21T11:08:18;9.70;;;3.60;;
3311;SDS011;1668;49.648;8.570;2022-08-21T11:10:52;5.67;;;2.97;;
3311;SDS011;1668;49.648;8.570;2022-08-21T11:13:27;5.50;;;3.33;;
3311;SDS011;1668;49.648;8.570;2022-08-21T11:16:03;6.40;;;2.80;;
3311;SDS011;1668;49.648;8.570;2022-08-21T11:18:37;6.67;;;2.90;;
3311;SDS011;1668;49.648;8.570;2022-08-21T11:21:10;5.77;;;3.47;;
3311;SDS011;1668;49.648;8.570;2022-08-21T11:23:50;4.27;;;2.70;;
3311;SDS011;1668;49.648;8.570;2022-08-21T11:26:25;5.87;;;3.07;;
3311;SDS011;1668;49.648;8.570;2022-08-21T11:28:58;6.80;;;2.93;;
3311;SDS011;1668;49.648;8.570;2022-08-21T11:31:33;7.20;;;3.07;;
3311;SDS011;1668;49.648;8.570;2022-08-21T11:34:16;5.73;;;3.00;;
3311;SDS011;1668;49.648;8.570;2022-08-21T11:36:54;5.00;;;2.80;;
3311;SDS011;1668;49.648;8.570;2022-08-21T11:39:33;5.70;;;2.67;;
3311;SDS011;1668;49.648;8.570;2022-08-21T11:42:06;6.60;;;3.10;;
3311;SDS011;1668;49.648;8.570;2022-08-21T11:44:45;5.20;;;3.13;;
3311;SDS011;1668;49.648;8.570;2022-08-21T11:47:19;4.23;;;2.93;;
3311;SDS011;1668;49.648;8.570;2022-08-21T11:50:01;4.40;;;2.87;;
3311;SDS011;1668;49.648;8.570;2022-08-21T11:52:36;6.70;;;3.27;;
3311;SDS011;1668;49.648;8.570;2022-08-21T11:55:11;8.10;;;3.17;;
3311;SDS011;1668;49.648;8.570;2022-08-21T11:57:46;5.60;;;3.30;;
3311;SDS011;1668;49.648;8.570;2022-08-21T12:00:19;5.80;;;2.97;;
3311;SDS011;1668;49.648;8.570;2022-08-21T12:02:50;6.07;;;3.23;;
3311;SDS011;1668;49.648;8.570;2022-08-21T12:05:23;6.40;;;3.37;;
3311;SDS011;1668;49.648;8.570;2022-08-21T12:08:00;8.30;;;3.23;;
3311;SDS011;1668;49.648;8.570;2022-08-21T12:10:36;4.80;;;2.47;;
3311;SDS011;1668;49.648;8.570;2022-08-21T12:13:06;6.43;;;2.80;;
3311;SDS011;1668;49.648;8.570;2022-08-21T12:15:36;6.53;;;3.50;;
3311;SDS011;1668;49.648;8.570;2022-08-21T12:18:04;5.50;;;3.33;;
3311;SDS011;1668;49.648;8.570;2022-08-21T12:20:39;7.80;;;3.30;;
3311;SDS011;1668;49.648;8.570;2022-08-21T12:23:16;7.53;;;3.20;;
3311;SDS011;1668;49.648;8.570;2022-08-21T12:25:48;5.90;;;3.37;;
3311;SDS011;1668;49.648;8.570;2022-08-21T12:28:27;4.37;;;3.00;;
3311;SDS011;1668;49.648;8.570;2022-08-21T12:30:56;8.53;;;3.63;;
3311;SDS011;1668;49.648;8.570;2022-08-21T12:33:24;6.77;;;3.83;;
3311;SDS011;1668;49.648;8.570;2022-08-21T12:36:01;6.33;;;3.57;;
3311;SDS011;1668;49.648;8.570;2022-08-21T12:38:32;6.60;;;3.47;;
3311;SDS011;1668;49.648;8.570;2022-08-21T12:41:09;5.67;;;3.07;;
3311;SDS011;1668;49.648;8.570;2022-08-21T12:43:42;5.80;;;3.37;;
3311;SDS011;1668;49.648;8.570;2022-08-21T12:46:14;4.40;;;3.40;;
3311;SDS011;1668;49.648;8.570;2022-08-21T12:48:45;5.47;;;3.10;;
3311;SDS011;1668;49.648;8.570;2022-08-21T12:51:17;6.47;;;2.90;;
3311;SDS011;1668;49.648;8.570;2022-08-21T12:53:49;6.40;;;3.47;;
3311;SDS011;1668;49.648;8.570;2022-08-21T12:56:19;6.90;;;3.47;;
3311;SDS011;1668;49.648;8.570;2022-08-21T12:58:49;7.00;;;3.40;;
3311;SDS011;1668;49.648;8.570;2022-08-21T13:01:31;5.37;;;3.53;;
3311;SDS011;1668;49.648;8.570;2022-08-21T13:04:02;6.90;;;3.60;;
3311;SDS011;1668;49.648;8.570;2022-08-21T13:06:36;8.23;;;2.73;;
3311;SDS011;1668;49.648;8.570;2022-08-21T13:09:06;5.90;;;3.30;;
3311;SDS011;1668;49.648;8.570;2022-08-21T13:11:40;7.47;;;3.27;;
3311;SDS011;1668;49.648;8.570;2022-08-21T13:14:10;7.80;;;3.40;;
3311;SDS011;1668;49.648;8.570;2022-08-21T13:16:42;5.40;;;3.23;;
3311;SDS011;1668;49.648;8.570;2022-08-21T13:19:11;6.90;;;3.20;;
3311;SDS011;1668;49.648;8.570;2022-08-21T13:21:43;8.07;;;3.30;;
3311;SDS011;1668;49.648;8.570;2022-08-21T13:24:12;6.90;;;3.30;;
3311;SDS011;1668;49.648;8.570;2022-08-21T13:26:43;5.70;;;2.97;;
3311;SDS011;1668;49.648;8.570;2022-08-21T13:29:11;7.27;;;3.73;;
3311;SDS011;1668;49.648;8.570;2022-08-21T13:31:40;5.37;;;3.20;;
3311;SDS011;1668;49.648;8.570;2022-08-21T13:34:13;6.60;;;2.97;;
3311;SDS011;1668;49.648;8.570;2022-08-21T13:36:42;6.67;;;3.07;;
3311;SDS011;1668;49.648;8.570;2022-08-21T13:39:11;4.87;;;2.80;;
3311;SDS011;1668;49.648;8.570;2022-08-21T13:41:43;5.40;;;3.53;;
3311;SDS011;1668;49.648;8.570;2022-08-21T13:44:16;7.50;;;3.70;;
3311;SDS011;1668;49.648;8.570;2022-08-21T13:46:46;4.97;;;2.70;;
3311;SDS011;1668;49.648;8.570;2022-08-21T13:49:15;7.87;;;2.87;;
3311;SDS011;1668;49.648;8.570;2022-08-21T13:51:45;6.73;;;2.73;;
3311;SDS011;1668;49.648;8.570;2022-08-21T13:54:21;6.30;;;3.10;;
3311;SDS011;1668;49.648;8.570;2022-08-21T13:56:52;7.33;;;2.80;;
3311;SDS011;1668;49.648;8.570;2022-08-21T13:59:24;4.77;;;2.90;;
3311;SDS011;1668;49.648;8.570;2022-08-21T14:01:53;6.07;;;3.50;;
3311;SDS011;1668;49.648;8.570;2022-08-21T14:04:25;8.67;;;3.47;;
3311;SDS011;1668;49.648;8.570;2022-08-21T14:10:19;5.37;;;3.43;;
3311;SDS011;1668;49.648;8.570;2022-08-21T14:12:50;4.73;;;2.87;;
3311;SDS011;1668;49.648;8.570;2022-08-21T14:15:22;6.00;;;3.10;;
3311;SDS011;1668;49.648;8.570;2022-08-21T14:17:51;4.90;;;2.70;;
3311;SDS011;1668;49.648;8.570;2022-08-21T14:20:28;7.07;;;2.77;;
3311;SDS011;1668;49.648;8.570;2022-08-21T14:22:56;4.80;;;2.57;;
3311;SDS011;1668;49.648;8.570;2022-08-21T14:25:28;3.80;;;2.47;;
3311;SDS011;1668;49.648;8.570;2022-08-21T14:28:10;9.37;;;3.37;;
3311;SDS011;1668;49.648;8.570;2022-08-21T14:30:47;5.43;;;2.83;;
3311;SDS011;1668;49.648;8.570;2022-08-21T14:33:18;5.73;;;2.60;;
3311;SDS011;1668;49.648;8.570;2022-08-21T14:35:49;8.93;;;2.60;;
3311;SDS011;1668;49.648;8.570;2022-08-21T14:40:46;4.40;;;2.57;;
3311;SDS011;1668;49.648;8.570;2022-08-21T14:43:16;12.80;;;2.97;;
3311;SDS011;1668;49.648;8.570;2022-08-21T14:45:44;5.13;;;2.47;;
3311;SDS011;1668;49.648;8.570;2022-08-21T14:48:14;5.20;;;2.53;;
3311;SDS011;1668;49.648;8.570;2022-08-21T14:50:41;5.37;;;3.10;;
3311;SDS011;1668;49.648;8.570;2022-08-21T14:53:09;6.50;;;2.73;;
3311;SDS011;1668;49.648;8.570;2022-08-21T14:55:36;5.37;;;2.93;;
3311;SDS011;1668;49.648;8.570;2022-08-21T14:58:19;4.33;;;2.50;;
3311;SDS011;1668;49.648;8.570;2022-08-21T15:00:48;6.30;;;3.03;;
3311;SDS011;1668;49.648;8.570;2022-08-21T15:03:15;7.03;;;3.03;;
3311;SDS011;1668;49.648;8.570;2022-08-21T15:05:43;3.80;;;2.30;;
3311;SDS011;1668;49.648;8.570;2022-08-21T15:08:10;4.37;;;2.50;;
3311;SDS011;1668;49.648;8.570;2022-08-21T15:10:38;5.23;;;2.37;;
3311;SDS011;1668;49.648;8.570;2022-08-21T15:13:05;6.33;;;2.70;;
3311;SDS011;1668;49.648;8.570;2022-08-21T15:15:35;3.83;;;2.23;;
3311;SDS011;1668;49.648;8.570;2022-08-21T15:18:06;6.07;;;2.20;;
3311;SDS011;1668;49.648;8.570;2022-08-21T15:20:33;4.00;;;2.33;;
3311;SDS011;1668;49.648;8.570;2022-08-21T15:23:00;4.63;;;2.23;;
3311;SDS011;1668;49.648;8.570;2022-08-21T15:25:27;3.40;;;2.20;;
3311;SDS011;1668;49.648;8.570;2022-08-21T15:27:54;7.87;;;2.93;;
3311;SDS011;1668;49.648;8.570;2022-08-21T15:30:22;4.77;;;2.27;;
3311;SDS011;1668;49.648;8.570;2022-08-21T15:32:50;6.90;;;2.43;;
3311;SDS011;1668;49.648;8.570;2022-08-21T15:35:18;6.17;;;2.50;;